sensor_id;sensor_type;location;lat;lon;timestamp;P1;durP1;ratioP1;P2;durP2;ratioP2
57822;SDS011;43650;48.064;20.624;2022-12-07T00:00:16;46.05;;;20.85;;
57822;SDS011;43650;48.064;20.624;2022-12-07T00:01:20;16.10;;;7.72;;
57822;SDS011;43650;48.064;20.624;2022-12-07T00:02:22;5.57;;;3.65;;
57822;SDS011;43650;48.064;20.624;2022-12-07T00:03:23;4.80;;;2.83;;
57822;SDS011;43650;48.064;20.624;2022-12-07T00:04:23;6.50;;;3.57;;
57822;SDS011;43650;48.064;20.624;2022-12-07T00:05:24;5.37;;;2.87;;
57822;SDS011;43650;48.064;20.624;2022-12-07T00:06:24;15.63;;;7.13;;
57822;SDS011;43650;48.064;20.624;2022-12-07T00:07:24;9.40;;;5.30;;
57822;SDS011;43650;48.064;20.624;2022-12-07T00:08:25;22.03;;;11.07;;
57822;SDS011;43650;48.064;20.624;2022-12-07T00:09:25;9.53;;;4.80;;
57822;SDS011;43650;48.064;20.624;2022-12-07T00:10:26;10.93;;;4.77;;
57822;SDS011;43650;48.064;20.624;2022-12-07T00:11:26;4.77;;;3.03;;
57822;SDS011;43650;48.064;20.624;2022-12-07T00:12:27;4.85;;;2.60;;
57822;SDS011;43650;48.064;20.624;2022-12-07T00:13:27;4.13;;;2.33;;
57822;SDS011;43650;48.064;20.624;2022-12-07T00:14:28;7.50;;;3.17;;
57822;SDS011;43650;48.064;20.624;2022-12-07T00:15:28;7.33;;;4.33;;
57822;SDS011;43650;48.064;20.624;2022-12-07T00:16:29;2.90;;;2.03;;
57822;SDS011;43650;48.064;20.624;2022-12-07T00:17:31;3.22;;;2.30;;
57822;SDS011;43650;48.064;20.624;2022-12-07T00:18:33;6.80;;;4.12;;
57822;SDS011;43650;48.064;20.624;2022-12-07T00:19:34;8.82;;;3.90;;
57822;SDS011;43650;48.064;20.624;2022-12-07T00:20:34;7.20;;;2.90;;
57822;SDS011;43650;48.064;20.624;2022-12-07T00:21:35;2.57;;;2.00;;
57822;SDS011;43650;48.064;20.624;2022-12-07T00:22:35;3.55;;;2.05;;
57822;SDS011;43650;48.064;20.624;2022-12-07T00:23:36;46.67;;;17.40;;
57822;SDS011;43650;48.064;20.624;2022-12-07T00:24:36;78.07;;;28.43;;
57822;SDS011;43650;48.064;20.624;2022-12-07T00:25:37;9.53;;;5.00;;
57822;SDS011;43650;48.064;20.624;2022-12-07T00:26:38;28.70;;;11.40;;
57822;SDS011;43650;48.064;20.624;2022-12-07T00:27:39;4.95;;;2.65;;
57822;SDS011;43650;48.064;20.624;2022-12-07T00:28:39;3.30;;;1.70;;
57822;SDS011;43650;48.064;20.624;2022-12-07T00:29:40;3.60;;;1.77;;
57822;SDS011;43650;48.064;20.624;2022-12-07T00:30:40;2.40;;;1.40;;
57822;SDS011;43650;48.064;20.624;2022-12-07T00:31:41;14.60;;;6.20;;
57822;SDS011;43650;48.064;20.624;2022-12-07T00:32:41;12.30;;;5.40;;
57822;SDS011;43650;48.064;20.624;2022-12-07T00:33:42;4.97;;;2.83;;
57822;SDS011;43650;48.064;20.624;2022-12-07T00:34:42;2.58;;;1.30;;
57822;SDS011;43650;48.064;20.624;2022-12-07T00:35:42;2.23;;;1.17;;
57822;SDS011;43650;48.064;20.624;2022-12-07T00:36:43;2.40;;;1.50;;
57822;SDS011;43650;48.064;20.624;2022-12-07T00:37:43;9.70;;;4.13;;
57822;SDS011;43650;48.064;20.624;2022-12-07T00:38:44;3.87;;;1.70;;
57822;SDS011;43650;48.064;20.624;2022-12-07T00:39:45;2.37;;;1.77;;
57822;SDS011;43650;48.064;20.624;2022-12-07T00:40:53;3.22;;;1.42;;
57822;SDS011;43650;48.064;20.624;2022-12-07T00:41:57;2.92;;;1.92;;
57822;SDS011;43650;48.064;20.624;2022-12-07T00:42:58;3.40;;;2.00;;
57822;SDS011;43650;48.064;20.624;2022-12-07T00:43:58;2.73;;;1.83;;
57822;SDS011;43650;48.064;20.624;2022-12-07T00:44:59;2.80;;;1.70;;
57822;SDS011;43650;48.064;20.624;2022-12-07T00:45:59;3.00;;;1.43;;
57822;SDS011;43650;48.064;20.624;2022-12-07T00:46:59;3.13;;;1.47;;
57822;SDS011;43650;48.064;20.624;2022-12-07T00:48:00;2.33;;;1.50;;
57822;SDS011;43650;48.064;20.624;2022-12-07T00:49:00;5.03;;;2.23;;
57822;SDS011;43650;48.064;20.624;2022-12-07T00:50:01;4.93;;;1.67;;
57822;SDS011;43650;48.064;20.624;2022-12-07T00:51:01;5.23;;;2.07;;
57822;SDS011;43650;48.064;20.624;2022-12-07T00:52:02;3.30;;;1.70;;
57822;SDS011;43650;48.064;20.624;2022-12-07T00:53:03;4.30;;;2.30;;
57822;SDS011;43650;48.064;20.624;2022-12-07T00:54:03;3.57;;;1.93;;
57822;SDS011;43650;48.064;20.624;2022-12-07T00:55:04;3.83;;;2.00;;
57822;SDS011;43650;48.064;20.624;2022-12-07T00:56:05;3.25;;;2.00;;
57822;SDS011;43650;48.064;20.624;2022-12-07T00:57:07;5.87;;;2.28;;
57822;SDS011;43650;48.064;20.624;2022-12-07T00:58:07;3.80;;;2.50;;
57822;SDS011;43650;48.064;20.624;2022-12-07T00:59:10;4.43;;;2.33;;
57822;SDS011;43650;48.064;20.624;2022-12-07T01:00:14;2.17;;;1.42;;
57822;SDS011;43650;48.064;20.624;2022-12-07T01:01:14;3.95;;;2.40;;
57822;SDS011;43650;48.064;20.624;2022-12-07T01:02:15;4.07;;;1.97;;
57822;SDS011;43650;48.064;20.624;2022-12-07T01:03:16;4.80;;;2.67;;
57822;SDS011;43650;48.064;20.624;2022-12-07T01:04:17;3.85;;;1.90;;
57822;SDS011;43650;48.064;20.624;2022-12-07T01:05:17;4.07;;;2.50;;
57822;SDS011;43650;48.064;20.624;2022-12-07T01:06:18;3.95;;;2.28;;
57822;SDS011;43650;48.064;20.624;2022-12-07T01:07:19;5.50;;;2.83;;
57822;SDS011;43650;48.064;20.624;2022-12-07T01:08:20;4.17;;;2.23;;
57822;SDS011;43650;48.064;20.624;2022-12-07T01:09:21;4.40;;;2.95;;
57822;SDS011;43650;48.064;20.624;2022-12-07T01:10:22;4.60;;;2.47;;
57822;SDS011;43650;48.064;20.624;2022-12-07T01:11:23;5.20;;;3.00;;
57822;SDS011;43650;48.064;20.624;2022-12-07T01:12:25;6.12;;;3.37;;
57822;SDS011;43650;48.064;20.624;2022-12-07T01:13:25;4.77;;;2.60;;
57822;SDS011;43650;48.064;20.624;2022-12-07T01:14:26;7.87;;;2.80;;
57822;SDS011;43650;48.064;20.624;2022-12-07T01:15:26;7.97;;;2.40;;
57822;SDS011;43650;48.064;20.624;2022-12-07T01:16:27;7.30;;;3.70;;
57822;SDS011;43650;48.064;20.624;2022-12-07T01:17:28;5.30;;;3.37;;
57822;SDS011;43650;48.064;20.624;2022-12-07T01:18:29;5.73;;;2.93;;
57822;SDS011;43650;48.064;20.624;2022-12-07T01:19:30;8.00;;;3.83;;
57822;SDS011;43650;48.064;20.624;2022-12-07T01:20:31;9.20;;;4.30;;
57822;SDS011;43650;48.064;20.624;2022-12-07T01:21:32;4.90;;;3.10;;
57822;SDS011;43650;48.064;20.624;2022-12-07T01:22:38;12.80;;;3.22;;
57822;SDS011;43650;48.064;20.624;2022-12-07T01:23:39;6.28;;;3.42;;
57822;SDS011;43650;48.064;20.624;2022-12-07T01:24:40;7.03;;;3.47;;
57822;SDS011;43650;48.064;20.624;2022-12-07T01:25:40;8.17;;;3.63;;
57822;SDS011;43650;48.064;20.624;2022-12-07T01:26:40;7.03;;;3.97;;
57822;SDS011;43650;48.064;20.624;2022-12-07T01:27:41;7.67;;;4.30;;
57822;SDS011;43650;48.064;20.624;2022-12-07T01:28:42;9.13;;;4.12;;
57822;SDS011;43650;48.064;20.624;2022-12-07T01:29:43;5.82;;;3.35;;
57822;SDS011;43650;48.064;20.624;2022-12-07T01:30:43;7.37;;;3.73;;
57822;SDS011;43650;48.064;20.624;2022-12-07T01:31:44;7.23;;;3.80;;
57822;SDS011;43650;48.064;20.624;2022-12-07T01:32:44;8.40;;;3.07;;
57822;SDS011;43650;48.064;20.624;2022-12-07T01:33:46;8.20;;;3.90;;
57822;SDS011;43650;48.064;20.624;2022-12-07T01:34:48;5.05;;;2.67;;
57822;SDS011;43650;48.064;20.624;2022-12-07T01:35:48;9.37;;;5.10;;
57822;SDS011;43650;48.064;20.624;2022-12-07T01:36:49;7.77;;;3.77;;
57822;SDS011;43650;48.064;20.624;2022-12-07T01:37:49;7.57;;;3.23;;
57822;SDS011;43650;48.064;20.624;2022-12-07T01:38:51;5.87;;;3.20;;
57822;SDS011;43650;48.064;20.624;2022-12-07T01:39:53;10.40;;;5.37;;
57822;SDS011;43650;48.064;20.624;2022-12-07T01:40:57;8.30;;;5.07;;
57822;SDS011;43650;48.064;20.624;2022-12-07T01:41:58;6.95;;;3.45;;
57822;SDS011;43650;48.064;20.624;2022-12-07T01:42:58;9.30;;;4.93;;
57822;SDS011;43650;48.064;20.624;2022-12-07T01:46:31;7.47;;;3.78;;
57822;SDS011;43650;48.064;20.624;2022-12-07T01:47:31;10.90;;;5.27;;
57822;SDS011;43650;48.064;20.624;2022-12-07T01:48:36;10.73;;;4.80;;
57822;SDS011;43650;48.064;20.624;2022-12-07T01:49:42;6.62;;;3.85;;
57822;SDS011;43650;48.064;20.624;2022-12-07T01:50:45;8.18;;;3.35;;
57822;SDS011;43650;48.064;20.624;2022-12-07T01:51:47;7.53;;;3.92;;
57822;SDS011;43650;48.064;20.624;2022-12-07T01:52:49;8.07;;;4.05;;
57822;SDS011;43650;48.064;20.624;2022-12-07T01:53:51;7.85;;;4.68;;
57822;SDS011;43650;48.064;20.624;2022-12-07T01:54:54;8.20;;;4.43;;
57822;SDS011;43650;48.064;20.624;2022-12-07T01:55:57;7.93;;;3.22;;
57822;SDS011;43650;48.064;20.624;2022-12-07T01:56:58;7.10;;;3.95;;
57822;SDS011;43650;48.064;20.624;2022-12-07T01:57:59;13.25;;;6.60;;
57822;SDS011;43650;48.064;20.624;2022-12-07T01:58:59;10.40;;;5.97;;
57822;SDS011;43650;48.064;20.624;2022-12-07T02:00:00;9.02;;;6.00;;
57822;SDS011;43650;48.064;20.624;2022-12-07T02:01:01;5.75;;;3.25;;
57822;SDS011;43650;48.064;20.624;2022-12-07T02:02:02;4.63;;;2.83;;
57822;SDS011;43650;48.064;20.624;2022-12-07T02:03:06;2.83;;;1.83;;
57822;SDS011;43650;48.064;20.624;2022-12-07T02:04:13;5.22;;;2.97;;
57822;SDS011;43650;48.064;20.624;2022-12-07T02:05:13;5.23;;;2.20;;
57822;SDS011;43650;48.064;20.624;2022-12-07T02:06:15;2.87;;;1.87;;
57822;SDS011;43650;48.064;20.624;2022-12-07T02:07:20;7.90;;;3.22;;
57822;SDS011;43650;48.064;20.624;2022-12-07T02:08:20;4.65;;;2.70;;
57822;SDS011;43650;48.064;20.624;2022-12-07T02:09:21;4.97;;;2.30;;
57822;SDS011;43650;48.064;20.624;2022-12-07T02:11:26;4.87;;;2.40;;
57822;SDS011;43650;48.064;20.624;2022-12-07T02:12:27;2.83;;;1.73;;
57822;SDS011;43650;48.064;20.624;2022-12-07T02:13:29;2.67;;;1.43;;
57822;SDS011;43650;48.064;20.624;2022-12-07T02:14:31;3.12;;;1.87;;
57822;SDS011;43650;48.064;20.624;2022-12-07T02:15:44;2.70;;;1.60;;
57822;SDS011;43650;48.064;20.624;2022-12-07T02:16:55;2.55;;;1.58;;
57822;SDS011;43650;48.064;20.624;2022-12-07T02:18:09;3.35;;;1.67;;
57822;SDS011;43650;48.064;20.624;2022-12-07T02:24:54;3.15;;;1.55;;
57822;SDS011;43650;48.064;20.624;2022-12-07T02:25:50;3.33;;;2.03;;
57822;SDS011;43650;48.064;20.624;2022-12-07T02:27:10;3.28;;;1.98;;
57822;SDS011;43650;48.064;20.624;2022-12-07T02:28:20;2.53;;;1.40;;
57822;SDS011;43650;48.064;20.624;2022-12-07T02:29:25;2.50;;;1.77;;
57822;SDS011;43650;48.064;20.624;2022-12-07T02:30:28;2.33;;;1.50;;
57822;SDS011;43650;48.064;20.624;2022-12-07T02:31:31;2.67;;;1.40;;
57822;SDS011;43650;48.064;20.624;2022-12-07T02:35:44;4.45;;;1.37;;
57822;SDS011;43650;48.064;20.624;2022-12-07T02:36:52;2.17;;;1.55;;
57822;SDS011;43650;48.064;20.624;2022-12-07T02:39:05;3.33;;;2.05;;
57822;SDS011;43650;48.064;20.624;2022-12-07T02:42:26;4.30;;;2.15;;
57822;SDS011;43650;48.064;20.624;2022-12-07T02:43:34;6.85;;;2.40;;
57822;SDS011;43650;48.064;20.624;2022-12-07T02:44:38;3.22;;;1.73;;
57822;SDS011;43650;48.064;20.624;2022-12-07T02:45:39;3.15;;;1.60;;
57822;SDS011;43650;48.064;20.624;2022-12-07T02:46:42;2.53;;;1.50;;
57822;SDS011;43650;48.064;20.624;2022-12-07T02:47:45;5.22;;;2.00;;
57822;SDS011;43650;48.064;20.624;2022-12-07T02:48:49;3.47;;;1.92;;
57822;SDS011;43650;48.064;20.624;2022-12-07T02:49:50;2.80;;;1.65;;
57822;SDS011;43650;48.064;20.624;2022-12-07T02:50:52;5.15;;;2.50;;
57822;SDS011;43650;48.064;20.624;2022-12-07T02:51:53;2.55;;;1.55;;
57822;SDS011;43650;48.064;20.624;2022-12-07T02:52:54;3.83;;;1.70;;
57822;SDS011;43650;48.064;20.624;2022-12-07T02:53:54;3.75;;;2.15;;
57822;SDS011;43650;48.064;20.624;2022-12-07T02:54:54;2.87;;;1.70;;
57822;SDS011;43650;48.064;20.624;2022-12-07T02:55:55;5.27;;;1.83;;
57822;SDS011;43650;48.064;20.624;2022-12-07T02:57:02;3.10;;;1.90;;
57822;SDS011;43650;48.064;20.624;2022-12-07T02:58:26;2.85;;;1.65;;
57822;SDS011;43650;48.064;20.624;2022-12-07T03:00:56;3.35;;;1.55;;
57822;SDS011;43650;48.064;20.624;2022-12-07T03:03:17;2.22;;;1.40;;
57822;SDS011;43650;48.064;20.624;2022-12-07T03:08:31;5.28;;;2.55;;
57822;SDS011;43650;48.064;20.624;2022-12-07T03:10:01;1.83;;;1.37;;
57822;SDS011;43650;48.064;20.624;2022-12-07T03:11:16;3.97;;;1.98;;
57822;SDS011;43650;48.064;20.624;2022-12-07T03:12:28;2.47;;;1.75;;
57822;SDS011;43650;48.064;20.624;2022-12-07T03:14:47;2.40;;;1.58;;
57822;SDS011;43650;48.064;20.624;2022-12-07T03:16:04;4.40;;;1.92;;
57822;SDS011;43650;48.064;20.624;2022-12-07T03:17:15;2.83;;;1.87;;
57822;SDS011;43650;48.064;20.624;2022-12-07T03:18:18;2.08;;;1.55;;
57822;SDS011;43650;48.064;20.624;2022-12-07T03:19:21;7.18;;;2.83;;
57822;SDS011;43650;48.064;20.624;2022-12-07T03:20:23;3.90;;;2.55;;
57822;SDS011;43650;48.064;20.624;2022-12-07T03:22:25;2.80;;;1.85;;
57822;SDS011;43650;48.064;20.624;2022-12-07T03:23:28;5.32;;;2.05;;
57822;SDS011;43650;48.064;20.624;2022-12-07T03:24:46;3.90;;;2.25;;
57822;SDS011;43650;48.064;20.624;2022-12-07T03:25:49;3.83;;;2.47;;
57822;SDS011;43650;48.064;20.624;2022-12-07T03:26:55;4.25;;;2.20;;
57822;SDS011;43650;48.064;20.624;2022-12-07T03:28:02;3.97;;;1.50;;
57822;SDS011;43650;48.064;20.624;2022-12-07T03:29:06;5.28;;;2.15;;
57822;SDS011;43650;48.064;20.624;2022-12-07T03:31:17;3.72;;;1.83;;
57822;SDS011;43650;48.064;20.624;2022-12-07T03:32:35;4.40;;;2.15;;
57822;SDS011;43650;48.064;20.624;2022-12-07T03:33:49;4.32;;;2.50;;
57822;SDS011;43650;48.064;20.624;2022-12-07T03:36:28;4.43;;;1.98;;
57822;SDS011;43650;48.064;20.624;2022-12-07T03:37:34;3.78;;;2.30;;
57822;SDS011;43650;48.064;20.624;2022-12-07T03:38:44;3.92;;;2.60;;
57822;SDS011;43650;48.064;20.624;2022-12-07T03:40:02;3.00;;;2.28;;
57822;SDS011;43650;48.064;20.624;2022-12-07T03:41:32;4.30;;;2.22;;
57822;SDS011;43650;48.064;20.624;2022-12-07T03:42:34;4.05;;;2.20;;
57822;SDS011;43650;48.064;20.624;2022-12-07T03:43:34;4.30;;;2.60;;
57822;SDS011;43650;48.064;20.624;2022-12-07T03:44:36;5.68;;;2.87;;
57822;SDS011;43650;48.064;20.624;2022-12-07T03:45:38;7.93;;;3.50;;
57822;SDS011;43650;48.064;20.624;2022-12-07T03:46:45;4.68;;;2.62;;
57822;SDS011;43650;48.064;20.624;2022-12-07T03:48:00;4.87;;;2.58;;
57822;SDS011;43650;48.064;20.624;2022-12-07T03:50:39;4.82;;;2.55;;
57822;SDS011;43650;48.064;20.624;2022-12-07T03:51:51;5.05;;;2.55;;
57822;SDS011;43650;48.064;20.624;2022-12-07T03:52:58;5.50;;;3.33;;
57822;SDS011;43650;48.064;20.624;2022-12-07T03:54:05;3.65;;;2.50;;
57822;SDS011;43650;48.064;20.624;2022-12-07T03:56:16;5.45;;;2.05;;
57822;SDS011;43650;48.064;20.624;2022-12-07T03:57:17;3.95;;;2.60;;
57822;SDS011;43650;48.064;20.624;2022-12-07T03:58:19;7.45;;;2.58;;
57822;SDS011;43650;48.064;20.624;2022-12-07T03:59:21;7.40;;;3.80;;
57822;SDS011;43650;48.064;20.624;2022-12-07T04:00:21;5.85;;;3.12;;
57822;SDS011;43650;48.064;20.624;2022-12-07T04:01:22;8.15;;;3.47;;
57822;SDS011;43650;48.064;20.624;2022-12-07T04:03:25;4.50;;;2.50;;
57822;SDS011;43650;48.064;20.624;2022-12-07T04:04:25;6.93;;;3.10;;
57822;SDS011;43650;48.064;20.624;2022-12-07T04:05:26;5.67;;;3.73;;
57822;SDS011;43650;48.064;20.624;2022-12-07T04:06:26;6.47;;;3.37;;
57822;SDS011;43650;48.064;20.624;2022-12-07T04:07:27;8.13;;;3.07;;
57822;SDS011;43650;48.064;20.624;2022-12-07T04:08:27;6.97;;;3.50;;
57822;SDS011;43650;48.064;20.624;2022-12-07T04:09:28;5.10;;;3.07;;
57822;SDS011;43650;48.064;20.624;2022-12-07T04:10:28;5.30;;;3.27;;
57822;SDS011;43650;48.064;20.624;2022-12-07T04:11:28;5.03;;;3.07;;
57822;SDS011;43650;48.064;20.624;2022-12-07T04:12:29;4.50;;;2.87;;
57822;SDS011;43650;48.064;20.624;2022-12-07T04:13:29;6.10;;;3.30;;
57822;SDS011;43650;48.064;20.624;2022-12-07T04:14:50;6.35;;;2.60;;
57822;SDS011;43650;48.064;20.624;2022-12-07T04:15:50;6.70;;;3.77;;
57822;SDS011;43650;48.064;20.624;2022-12-07T04:16:52;6.93;;;3.30;;
57822;SDS011;43650;48.064;20.624;2022-12-07T04:17:53;9.38;;;4.28;;
57822;SDS011;43650;48.064;20.624;2022-12-07T04:18:54;6.07;;;3.40;;
57822;SDS011;43650;48.064;20.624;2022-12-07T04:19:55;5.73;;;3.40;;
57822;SDS011;43650;48.064;20.624;2022-12-07T04:20:55;5.87;;;3.37;;
57822;SDS011;43650;48.064;20.624;2022-12-07T04:21:56;6.90;;;3.27;;
57822;SDS011;43650;48.064;20.624;2022-12-07T04:22:57;6.87;;;3.75;;
57822;SDS011;43650;48.064;20.624;2022-12-07T04:23:58;7.03;;;4.00;;
57822;SDS011;43650;48.064;20.624;2022-12-07T04:24:58;5.13;;;3.20;;
57822;SDS011;43650;48.064;20.624;2022-12-07T04:25:59;6.20;;;3.60;;
57822;SDS011;43650;48.064;20.624;2022-12-07T04:26:59;7.20;;;4.53;;
57822;SDS011;43650;48.064;20.624;2022-12-07T04:27:59;6.10;;;4.00;;
57822;SDS011;43650;48.064;20.624;2022-12-07T04:29:00;6.47;;;3.70;;
57822;SDS011;43650;48.064;20.624;2022-12-07T04:30:00;6.70;;;3.67;;
57822;SDS011;43650;48.064;20.624;2022-12-07T04:31:01;6.13;;;4.03;;
57822;SDS011;43650;48.064;20.624;2022-12-07T04:32:01;6.23;;;4.07;;
57822;SDS011;43650;48.064;20.624;2022-12-07T04:33:02;6.87;;;3.37;;
57822;SDS011;43650;48.064;20.624;2022-12-07T04:34:02;6.30;;;3.90;;
57822;SDS011;43650;48.064;20.624;2022-12-07T04:35:03;7.65;;;4.03;;
57822;SDS011;43650;48.064;20.624;2022-12-07T04:36:04;8.32;;;3.75;;
57822;SDS011;43650;48.064;20.624;2022-12-07T04:37:05;6.15;;;3.75;;
57822;SDS011;43650;48.064;20.624;2022-12-07T04:38:05;6.60;;;3.57;;
57822;SDS011;43650;48.064;20.624;2022-12-07T04:39:06;6.13;;;3.37;;
57822;SDS011;43650;48.064;20.624;2022-12-07T04:40:08;9.80;;;4.25;;
57822;SDS011;43650;48.064;20.624;2022-12-07T04:41:10;9.13;;;4.60;;
57822;SDS011;43650;48.064;20.624;2022-12-07T04:42:11;9.37;;;4.40;;
57822;SDS011;43650;48.064;20.624;2022-12-07T04:43:12;7.00;;;4.10;;
57822;SDS011;43650;48.064;20.624;2022-12-07T04:44:13;9.37;;;3.77;;
57822;SDS011;43650;48.064;20.624;2022-12-07T04:46:15;7.78;;;3.40;;
57822;SDS011;43650;48.064;20.624;2022-12-07T04:47:15;4.93;;;3.27;;
57822;SDS011;43650;48.064;20.624;2022-12-07T04:48:15;10.07;;;4.77;;
57822;SDS011;43650;48.064;20.624;2022-12-07T04:49:16;8.37;;;4.27;;
57822;SDS011;43650;48.064;20.624;2022-12-07T04:50:17;7.60;;;4.20;;
57822;SDS011;43650;48.064;20.624;2022-12-07T04:51:25;8.17;;;4.57;;
57822;SDS011;43650;48.064;20.624;2022-12-07T04:52:26;8.55;;;4.82;;
57822;SDS011;43650;48.064;20.624;2022-12-07T04:53:27;11.70;;;4.67;;
57822;SDS011;43650;48.064;20.624;2022-12-07T04:54:27;8.87;;;5.13;;
57822;SDS011;43650;48.064;20.624;2022-12-07T04:55:27;8.27;;;4.80;;
57822;SDS011;43650;48.064;20.624;2022-12-07T04:56:28;10.10;;;5.17;;
57822;SDS011;43650;48.064;20.624;2022-12-07T04:57:28;8.97;;;4.27;;
57822;SDS011;43650;48.064;20.624;2022-12-07T04:58:29;8.20;;;4.47;;
57822;SDS011;43650;48.064;20.624;2022-12-07T04:59:29;11.80;;;4.77;;
57822;SDS011;43650;48.064;20.624;2022-12-07T05:00:29;8.77;;;4.60;;
57822;SDS011;43650;48.064;20.624;2022-12-07T05:01:30;8.10;;;4.00;;
57822;SDS011;43650;48.064;20.624;2022-12-07T05:02:30;6.90;;;3.40;;
57822;SDS011;43650;48.064;20.624;2022-12-07T05:03:31;9.40;;;4.37;;
57822;SDS011;43650;48.064;20.624;2022-12-07T05:04:31;9.23;;;5.03;;
57822;SDS011;43650;48.064;20.624;2022-12-07T05:05:32;9.87;;;5.10;;
57822;SDS011;43650;48.064;20.624;2022-12-07T05:06:32;7.37;;;3.70;;
57822;SDS011;43650;48.064;20.624;2022-12-07T05:07:32;7.57;;;4.23;;
57822;SDS011;43650;48.064;20.624;2022-12-07T05:08:33;8.80;;;5.10;;
57822;SDS011;43650;48.064;20.624;2022-12-07T05:09:34;9.43;;;5.37;;
57822;SDS011;43650;48.064;20.624;2022-12-07T05:10:34;8.83;;;4.67;;
57822;SDS011;43650;48.064;20.624;2022-12-07T05:11:34;8.20;;;4.73;;
57822;SDS011;43650;48.064;20.624;2022-12-07T05:12:38;9.65;;;4.80;;
57822;SDS011;43650;48.064;20.624;2022-12-07T05:13:38;8.47;;;5.30;;
57822;SDS011;43650;48.064;20.624;2022-12-07T05:14:38;9.83;;;4.33;;
57822;SDS011;43650;48.064;20.624;2022-12-07T05:15:39;10.50;;;5.13;;
57822;SDS011;43650;48.064;20.624;2022-12-07T05:16:39;6.90;;;4.20;;
57822;SDS011;43650;48.064;20.624;2022-12-07T05:17:40;10.35;;;4.47;;
57822;SDS011;43650;48.064;20.624;2022-12-07T05:18:41;11.40;;;5.93;;
57822;SDS011;43650;48.064;20.624;2022-12-07T05:19:41;13.07;;;6.43;;
57822;SDS011;43650;48.064;20.624;2022-12-07T05:20:42;9.47;;;5.67;;
57822;SDS011;43650;48.064;20.624;2022-12-07T05:21:42;9.85;;;5.03;;
57822;SDS011;43650;48.064;20.624;2022-12-07T05:22:43;10.10;;;5.63;;
57822;SDS011;43650;48.064;20.624;2022-12-07T05:23:43;7.17;;;3.97;;
57822;SDS011;43650;48.064;20.624;2022-12-07T05:24:43;9.20;;;5.50;;
57822;SDS011;43650;48.064;20.624;2022-12-07T05:25:44;10.50;;;5.70;;
57822;SDS011;43650;48.064;20.624;2022-12-07T05:26:45;8.70;;;5.15;;
57822;SDS011;43650;48.064;20.624;2022-12-07T05:27:45;9.77;;;5.20;;
57822;SDS011;43650;48.064;20.624;2022-12-07T05:28:49;22.55;;;5.75;;
57822;SDS011;43650;48.064;20.624;2022-12-07T05:29:51;12.18;;;5.55;;
57822;SDS011;43650;48.064;20.624;2022-12-07T05:31:52;8.50;;;4.85;;
57822;SDS011;43650;48.064;20.624;2022-12-07T05:32:53;9.97;;;5.63;;
57822;SDS011;43650;48.064;20.624;2022-12-07T05:33:53;10.60;;;5.90;;
57822;SDS011;43650;48.064;20.624;2022-12-07T05:34:54;10.50;;;5.20;;
57822;SDS011;43650;48.064;20.624;2022-12-07T05:35:54;10.57;;;5.00;;
57822;SDS011;43650;48.064;20.624;2022-12-07T05:36:55;11.83;;;5.23;;
57822;SDS011;43650;48.064;20.624;2022-12-07T05:37:55;8.27;;;5.17;;
57822;SDS011;43650;48.064;20.624;2022-12-07T05:38:57;9.95;;;5.25;;
57822;SDS011;43650;48.064;20.624;2022-12-07T05:39:57;7.85;;;4.60;;
57822;SDS011;43650;48.064;20.624;2022-12-07T05:41:05;8.87;;;4.30;;
57822;SDS011;43650;48.064;20.624;2022-12-07T05:42:06;10.07;;;5.53;;
57822;SDS011;43650;48.064;20.624;2022-12-07T05:43:12;11.05;;;5.10;;
57822;SDS011;43650;48.064;20.624;2022-12-07T05:44:13;11.13;;;4.77;;
57822;SDS011;43650;48.064;20.624;2022-12-07T05:45:13;8.95;;;4.78;;
57822;SDS011;43650;48.064;20.624;2022-12-07T05:46:14;7.63;;;4.40;;
57822;SDS011;43650;48.064;20.624;2022-12-07T05:47:14;12.10;;;4.50;;
57822;SDS011;43650;48.064;20.624;2022-12-07T05:48:15;9.05;;;4.95;;
57822;SDS011;43650;48.064;20.624;2022-12-07T05:49:15;8.77;;;4.83;;
57822;SDS011;43650;48.064;20.624;2022-12-07T05:50:16;8.87;;;5.07;;
57822;SDS011;43650;48.064;20.624;2022-12-07T05:51:16;11.07;;;5.47;;
57822;SDS011;43650;48.064;20.624;2022-12-07T05:52:17;8.27;;;5.00;;
57822;SDS011;43650;48.064;20.624;2022-12-07T05:53:17;8.73;;;4.93;;
57822;SDS011;43650;48.064;20.624;2022-12-07T05:54:18;10.57;;;4.95;;
57822;SDS011;43650;48.064;20.624;2022-12-07T05:55:19;11.17;;;6.03;;
57822;SDS011;43650;48.064;20.624;2022-12-07T05:56:19;10.52;;;5.10;;
57822;SDS011;43650;48.064;20.624;2022-12-07T05:57:20;8.32;;;5.10;;
57822;SDS011;43650;48.064;20.624;2022-12-07T05:58:20;7.33;;;4.43;;
57822;SDS011;43650;48.064;20.624;2022-12-07T05:59:39;8.45;;;4.35;;
57822;SDS011;43650;48.064;20.624;2022-12-07T06:00:39;8.57;;;4.40;;
57822;SDS011;43650;48.064;20.624;2022-12-07T06:01:40;8.60;;;4.77;;
57822;SDS011;43650;48.064;20.624;2022-12-07T06:02:40;11.20;;;5.60;;
57822;SDS011;43650;48.064;20.624;2022-12-07T06:03:41;7.20;;;4.83;;
57822;SDS011;43650;48.064;20.624;2022-12-07T06:04:42;9.53;;;4.47;;
57822;SDS011;43650;48.064;20.624;2022-12-07T06:05:44;9.35;;;5.28;;
57822;SDS011;43650;48.064;20.624;2022-12-07T06:06:44;9.73;;;5.33;;
57822;SDS011;43650;48.064;20.624;2022-12-07T06:07:45;10.27;;;5.40;;
57822;SDS011;43650;48.064;20.624;2022-12-07T06:08:45;10.40;;;4.50;;
57822;SDS011;43650;48.064;20.624;2022-12-07T06:09:46;7.33;;;4.17;;
57822;SDS011;43650;48.064;20.624;2022-12-07T06:10:46;10.50;;;4.37;;
57822;SDS011;43650;48.064;20.624;2022-12-07T06:12:09;7.40;;;4.15;;
57822;SDS011;43650;48.064;20.624;2022-12-07T06:13:29;7.12;;;4.43;;
57822;SDS011;43650;48.064;20.624;2022-12-07T06:14:29;7.43;;;4.23;;
57822;SDS011;43650;48.064;20.624;2022-12-07T06:15:30;8.97;;;4.73;;
57822;SDS011;43650;48.064;20.624;2022-12-07T06:16:30;9.27;;;5.37;;
57822;SDS011;43650;48.064;20.624;2022-12-07T06:17:31;33.03;;;13.87;;
57822;SDS011;43650;48.064;20.624;2022-12-07T06:18:32;51.15;;;21.33;;
57822;SDS011;43650;48.064;20.624;2022-12-07T06:19:32;51.80;;;24.50;;
57822;SDS011;43650;48.064;20.624;2022-12-07T06:20:32;59.27;;;24.33;;
57822;SDS011;43650;48.064;20.624;2022-12-07T06:21:33;123.50;;;46.10;;
57822;SDS011;43650;48.064;20.624;2022-12-07T06:22:33;168.40;;;59.03;;
57822;SDS011;43650;48.064;20.624;2022-12-07T06:23:34;104.90;;;34.40;;
57822;SDS011;43650;48.064;20.624;2022-12-07T06:24:34;102.30;;;34.03;;
57822;SDS011;43650;48.064;20.624;2022-12-07T06:25:35;177.48;;;59.20;;
57822;SDS011;43650;48.064;20.624;2022-12-07T06:26:35;25.27;;;13.20;;
57822;SDS011;43650;48.064;20.624;2022-12-07T06:27:36;31.07;;;12.77;;
57822;SDS011;43650;48.064;20.624;2022-12-07T06:28:36;119.30;;;46.10;;
57822;SDS011;43650;48.064;20.624;2022-12-07T06:29:37;18.40;;;8.43;;
57822;SDS011;43650;48.064;20.624;2022-12-07T06:30:37;63.63;;;25.23;;
57822;SDS011;43650;48.064;20.624;2022-12-07T06:31:38;25.07;;;11.10;;
57822;SDS011;43650;48.064;20.624;2022-12-07T06:32:38;138.93;;;50.10;;
57822;SDS011;43650;48.064;20.624;2022-12-07T06:33:39;40.47;;;18.40;;
57822;SDS011;43650;48.064;20.624;2022-12-07T06:34:39;20.50;;;9.73;;
57822;SDS011;43650;48.064;20.624;2022-12-07T06:35:39;44.83;;;17.30;;
57822;SDS011;43650;48.064;20.624;2022-12-07T06:36:40;46.73;;;20.23;;
57822;SDS011;43650;48.064;20.624;2022-12-07T06:37:40;36.13;;;17.07;;
57822;SDS011;43650;48.064;20.624;2022-12-07T06:38:41;23.77;;;11.47;;
57822;SDS011;43650;48.064;20.624;2022-12-07T06:39:41;22.87;;;10.93;;
57822;SDS011;43650;48.064;20.624;2022-12-07T06:40:42;73.03;;;31.20;;
57822;SDS011;43650;48.064;20.624;2022-12-07T06:41:42;141.30;;;50.30;;